createdAt,value
2018-04-22T00:02:14.554Z,1.60
2018-04-22T00:04:44.278Z,1.77
2018-04-22T00:07:14.014Z,1.50
2018-04-22T00:09:43.759Z,1.73
2018-04-22T00:12:13.471Z,1.70
2018-04-22T00:14:43.177Z,1.70
2018-04-22T00:17:12.928Z,1.73
2018-04-22T00:19:42.670Z,1.97
2018-04-22T00:22:12.418Z,1.87
2018-04-22T00:24:42.136Z,1.70
2018-04-22T00:27:11.856Z,1.60
2018-04-22T00:29:41.570Z,1.37
2018-04-22T00:32:11.334Z,1.67
2018-04-22T00:34:41.062Z,1.33
2018-04-22T00:37:10.814Z,1.43
2018-04-22T00:39:40.526Z,1.60
2018-04-22T00:42:10.273Z,1.10
2018-04-22T00:44:39.986Z,1.10
2018-04-22T00:47:09.706Z,1.27
2018-04-22T00:49:39.425Z,1.07
2018-04-22T00:52:09.142Z,1.27
2018-04-22T00:54:38.878Z,1.10
2018-04-22T00:57:08.659Z,1.40
2018-04-22T00:59:38.381Z,1.40
2018-04-22T01:02:08.318Z,1.20
2018-04-22T01:04:38.057Z,1.00
2018-04-22T01:07:07.790Z,0.90
2018-04-22T01:09:37.514Z,1.07
2018-04-22T01:12:07.249Z,1.20
2018-04-22T01:14:36.965Z,1.10
2018-04-22T01:17:06.705Z,1.30
2018-04-22T01:19:36.442Z,1.10
2018-04-22T01:22:06.155Z,1.10
2018-04-22T01:24:35.906Z,1.23
2018-04-22T01:27:05.629Z,1.20
2018-04-22T01:29:35.346Z,1.40
2018-04-22T01:32:05.066Z,1.17
2018-04-22T01:34:34.782Z,1.10
2018-04-22T01:37:04.522Z,1.00
2018-04-22T01:39:34.266Z,1.30
2018-04-22T01:42:04.020Z,1.60
2018-04-22T01:44:33.757Z,1.40
2018-04-22T01:47:03.474Z,1.50
2018-04-22T01:49:33.189Z,1.50
2018-04-22T01:52:02.914Z,1.33
2018-04-22T01:54:32.660Z,1.40
2018-04-22T01:57:02.374Z,1.40
2018-04-22T01:59:32.094Z,1.10
2018-04-22T02:02:01.806Z,1.50
2018-04-22T02:04:31.551Z,1.17
2018-04-22T02:07:01.280Z,1.20
2018-04-22T02:09:30.998Z,1.13
2018-04-22T02:12:00.809Z,1.30
2018-04-22T02:14:30.483Z,1.00
2018-04-22T02:17:00.233Z,1.33
2018-04-22T02:19:29.966Z,0.90
2018-04-22T02:21:59.699Z,1.17
2018-04-22T02:24:29.466Z,1.03
2018-04-22T02:26:59.162Z,1.40
2018-04-22T02:29:28.930Z,0.90
2018-04-22T02:31:58.654Z,1.30
2018-04-22T02:34:28.383Z,1.23
2018-04-22T02:36:58.120Z,1.13
2018-04-22T02:39:27.859Z,0.90
2018-04-22T02:41:57.562Z,0.97
2018-04-22T02:44:27.290Z,1.10
2018-04-22T02:46:57.056Z,1.10
2018-04-22T02:49:26.897Z,0.90
2018-04-22T02:51:56.628Z,0.90
2018-04-22T02:54:26.342Z,1.00
2018-04-22T02:56:56.063Z,1.00
2018-04-22T02:59:25.790Z,1.30
2018-04-22T03:01:55.502Z,0.80
2018-04-22T03:04:25.242Z,1.00
2018-04-22T03:06:54.969Z,1.00
2018-04-22T03:09:24.689Z,1.03
2018-04-22T03:11:54.422Z,0.87
2018-04-22T03:14:24.148Z,1.20
2018-04-22T03:16:53.853Z,1.10
2018-04-22T03:19:23.595Z,1.10
2018-04-22T03:21:53.327Z,1.10
2018-04-22T03:24:23.058Z,1.13
2018-04-22T03:26:52.838Z,0.90
2018-04-22T03:29:22.792Z,1.07
2018-04-22T03:31:52.483Z,1.00
2018-04-22T03:34:22.205Z,1.47
2018-04-22T03:36:51.926Z,1.00
2018-04-22T03:39:21.685Z,1.40
2018-04-22T03:41:51.419Z,0.93
2018-04-22T03:44:21.130Z,1.10
2018-04-22T03:46:50.915Z,1.10
2018-04-22T03:49:20.650Z,1.07
2018-04-22T03:51:50.386Z,0.87
2018-04-22T03:54:20.114Z,0.90
2018-04-22T03:56:49.866Z,1.10
2018-04-22T03:59:19.586Z,1.00
2018-04-22T04:01:49.478Z,1.00
2018-04-22T04:04:19.196Z,1.00
2018-04-22T04:06:48.919Z,0.87
2018-04-22T04:09:18.650Z,0.73
2018-04-22T04:11:48.382Z,1.00
2018-04-22T04:14:18.096Z,0.93
2018-04-22T04:16:47.817Z,0.87
2018-04-22T04:19:23.349Z,1.27
2018-04-22T04:21:58.871Z,0.93
2018-04-22T04:24:34.365Z,1.10
2018-04-22T04:30:00.294Z,0.90
2018-04-22T04:32:30.014Z,0.90
2018-04-22T04:34:59.766Z,1.00
2018-04-22T04:37:29.467Z,0.90
2018-04-22T04:39:59.204Z,1.17
2018-04-22T04:42:28.948Z,1.00
2018-04-22T04:44:58.671Z,0.97
2018-04-22T04:47:28.417Z,1.23
2018-04-22T04:49:58.163Z,0.80
2018-04-22T04:52:27.882Z,1.17
2018-04-22T04:54:57.691Z,1.10
2018-04-22T04:57:27.508Z,1.00
2018-04-22T04:59:57.225Z,1.17
2018-04-22T05:02:26.946Z,0.93
2018-04-22T05:04:56.668Z,1.00
2018-04-22T05:07:26.440Z,0.80
2018-04-22T05:09:56.163Z,1.00
2018-04-22T05:12:25.885Z,0.90
2018-04-22T05:14:55.608Z,1.20
2018-04-22T05:17:25.326Z,1.10
2018-04-22T05:19:55.038Z,0.80
2018-04-22T05:22:24.761Z,1.33
2018-04-22T05:24:54.483Z,1.10
2018-04-22T05:27:24.334Z,1.23
2018-04-22T05:29:54.082Z,1.07
2018-04-22T05:32:23.802Z,1.10
2018-04-22T05:34:53.550Z,1.00
2018-04-22T05:37:23.274Z,1.00
2018-04-22T05:39:53.040Z,0.93
2018-04-22T05:42:22.721Z,0.87
2018-04-22T05:44:52.470Z,1.30
2018-04-22T05:47:22.186Z,0.90
2018-04-22T05:49:51.906Z,1.10
2018-04-22T05:52:21.650Z,0.80
2018-04-22T05:54:51.371Z,1.13
2018-04-22T05:57:21.098Z,0.90
2018-04-22T05:59:50.833Z,1.00
2018-04-22T06:02:20.549Z,0.93
2018-04-22T06:04:50.302Z,1.10
2018-04-22T06:07:20.010Z,0.80
2018-04-22T06:09:49.758Z,0.70
2018-04-22T06:12:19.477Z,1.10
2018-04-22T06:14:49.194Z,0.90
2018-04-22T06:17:18.924Z,1.00
2018-04-22T06:19:48.652Z,0.90
2018-04-22T06:22:20.304Z,1.20
2018-04-22T06:24:50.646Z,0.93
2018-04-22T06:27:20.485Z,1.10
2018-04-22T06:29:51.035Z,2.23
2018-04-22T06:32:22.247Z,0.80
2018-04-22T06:34:51.947Z,1.17
2018-04-22T06:37:21.674Z,0.93
2018-04-22T06:39:51.398Z,1.07
2018-04-22T06:42:21.131Z,0.90
2018-04-22T06:44:50.862Z,1.00
2018-04-22T06:47:20.661Z,1.23
2018-04-22T06:49:50.402Z,0.90
2018-04-22T06:52:20.131Z,0.90
2018-04-22T06:54:49.848Z,0.90
2018-04-22T06:57:19.606Z,1.03
2018-04-22T06:59:49.345Z,1.00
2018-04-22T07:02:19.086Z,1.40
2018-04-22T07:04:48.801Z,1.17
2018-04-22T07:07:18.531Z,0.77
2018-04-22T07:09:48.249Z,0.83
2018-04-22T07:12:17.981Z,0.90
2018-04-22T07:14:47.714Z,1.00
2018-04-22T07:17:17.434Z,1.30
2018-04-22T07:19:47.145Z,0.90
2018-04-22T07:22:16.874Z,1.00
2018-04-22T07:24:46.601Z,1.00
2018-04-22T07:27:16.314Z,0.70
2018-04-22T07:29:46.031Z,1.20
2018-04-22T07:32:15.753Z,0.97
2018-04-22T07:34:45.462Z,1.03
2018-04-22T07:37:15.194Z,0.90
2018-04-22T07:39:44.921Z,1.00
2018-04-22T07:42:14.651Z,1.00
2018-04-22T07:44:44.371Z,0.90
2018-04-22T07:47:14.096Z,1.10
2018-04-22T07:49:43.847Z,1.13
2018-04-22T07:52:13.552Z,6.37
2018-04-22T07:54:43.273Z,7.70
2018-04-22T07:57:13.022Z,9.17
2018-04-22T07:59:42.742Z,7.47
2018-04-22T08:02:12.462Z,5.70
2018-04-22T08:04:42.192Z,5.67
2018-04-22T08:07:11.914Z,7.97
2018-04-22T08:09:41.637Z,9.00
2018-04-22T08:12:11.379Z,9.67
2018-04-22T08:14:41.107Z,12.17
2018-04-22T08:17:10.831Z,9.17
2018-04-22T08:19:40.562Z,8.37
2018-04-22T08:22:10.414Z,11.43
2018-04-22T08:24:40.180Z,9.60
2018-04-22T08:27:10.006Z,11.00
2018-04-22T08:29:39.749Z,9.37
2018-04-22T08:32:09.474Z,9.80
2018-04-22T08:34:39.269Z,13.40
2018-04-22T08:37:08.966Z,12.40
2018-04-22T08:39:38.710Z,9.07
2018-04-22T08:42:08.454Z,9.53
2018-04-22T08:44:38.189Z,9.03
2018-04-22T08:47:07.914Z,8.50
2018-04-22T08:49:37.777Z,11.40
2018-04-22T08:52:07.558Z,9.40
2018-04-22T08:54:37.278Z,9.23
2018-04-22T08:57:07.046Z,9.77
2018-04-22T08:59:36.790Z,9.50
2018-04-22T09:02:06.532Z,8.37
2018-04-22T09:04:36.202Z,6.90
2018-04-22T09:07:05.929Z,9.40
2018-04-22T09:09:35.678Z,11.83
2018-04-22T09:12:05.407Z,13.93
2018-04-22T09:14:35.138Z,11.57
2018-04-22T09:17:04.875Z,11.57
2018-04-22T09:19:34.611Z,11.90
2018-04-22T09:22:04.354Z,13.20
2018-04-22T09:24:34.103Z,12.73
2018-04-22T09:27:03.844Z,13.98
2018-04-22T09:29:33.574Z,9.10
2018-04-22T09:32:03.302Z,10.67
2018-04-22T09:34:33.026Z,13.60
2018-04-22T09:37:02.746Z,14.23
2018-04-22T09:39:32.482Z,15.17
2018-04-22T09:42:02.846Z,11.37
2018-04-22T09:44:34.051Z,13.20
2018-04-22T09:47:03.826Z,10.20
2018-04-22T09:49:33.546Z,11.77
2018-04-22T09:52:03.277Z,10.37
2018-04-22T09:54:33.011Z,16.53
2018-04-22T09:57:02.756Z,12.00
2018-04-22T09:59:32.483Z,15.53
2018-04-22T10:02:02.210Z,16.27
2018-04-22T10:04:37.691Z,14.77
2018-04-22T10:07:07.419Z,16.47
2018-04-22T10:09:37.142Z,17.50
2018-04-22T10:12:06.871Z,19.53
2018-04-22T10:14:36.608Z,17.80
2018-04-22T10:17:06.333Z,12.60
2018-04-22T10:19:36.126Z,14.37
2018-04-22T10:22:06.038Z,17.17
2018-04-22T10:24:35.769Z,15.60
2018-04-22T10:27:05.546Z,19.63
2018-04-22T10:29:35.274Z,16.60
2018-04-22T10:32:05.002Z,12.37
2018-04-22T10:34:34.729Z,10.47
2018-04-22T10:37:04.478Z,12.80
2018-04-22T10:39:34.228Z,10.43
2018-04-22T10:42:03.988Z,9.90
2018-04-22T10:44:33.730Z,9.67
2018-04-22T10:47:03.468Z,8.93
2018-04-22T10:49:33.191Z,8.07
2018-04-22T10:52:02.954Z,7.40
2018-04-22T10:54:32.671Z,6.60
2018-04-22T10:57:02.462Z,6.93
2018-04-22T10:59:32.202Z,7.20
2018-04-22T11:02:02.018Z,7.20
2018-04-22T11:04:31.708Z,8.13
2018-04-22T11:07:01.446Z,7.40
2018-04-22T11:09:31.174Z,7.57
2018-04-22T11:12:00.925Z,6.77
2018-04-22T11:14:31.603Z,5.93
2018-04-22T11:17:01.343Z,5.73
2018-04-22T11:19:31.058Z,5.80
2018-04-22T11:22:00.817Z,5.17
2018-04-22T11:24:30.546Z,5.40
2018-04-22T11:27:01.206Z,4.97
2018-04-22T11:29:30.959Z,5.30
2018-04-22T11:32:00.674Z,4.33
2018-04-22T11:34:30.413Z,4.77
2018-04-22T11:37:00.134Z,4.77
2018-04-22T11:39:29.854Z,5.03
2018-04-22T11:41:59.653Z,4.93
2018-04-22T11:44:29.369Z,4.30
2018-04-22T11:46:59.082Z,4.63
2018-04-22T11:49:28.821Z,4.67
2018-04-22T11:51:58.541Z,4.23
2018-04-22T11:54:28.270Z,3.97
2018-04-22T11:56:57.994Z,4.37
2018-04-22T11:59:27.706Z,4.70
2018-04-22T12:01:57.458Z,4.30
2018-04-22T12:04:27.186Z,4.30
2018-04-22T12:06:56.948Z,3.70
2018-04-22T12:09:26.690Z,3.37
2018-04-22T12:11:56.435Z,4.10
2018-04-22T12:14:26.178Z,3.90
2018-04-22T12:16:55.913Z,4.13
2018-04-22T12:19:25.718Z,3.80
2018-04-22T12:21:55.394Z,3.30
2018-04-22T12:24:25.177Z,3.73
2018-04-22T12:26:54.925Z,3.93
2018-04-22T12:29:24.637Z,3.90
2018-04-22T12:31:54.464Z,3.90
2018-04-22T12:34:24.135Z,3.97
2018-04-22T12:36:53.861Z,3.67
2018-04-22T12:39:23.594Z,3.53
2018-04-22T12:41:53.311Z,3.60
2018-04-22T12:44:23.046Z,3.53
2018-04-22T12:46:52.766Z,2.93
2018-04-22T12:49:22.512Z,3.27
2018-04-22T12:51:52.246Z,3.50
2018-04-22T12:54:22.036Z,3.65
2018-04-22T12:56:51.885Z,3.60
2018-04-22T12:59:21.691Z,3.23
2018-04-22T13:01:51.359Z,3.40
2018-04-22T13:04:21.080Z,3.00
2018-04-22T13:06:50.814Z,3.30
2018-04-22T13:09:20.556Z,3.17
2018-04-22T13:11:50.300Z,3.40
2018-04-22T13:14:20.045Z,3.40
2018-04-22T13:16:49.774Z,2.80
2018-04-22T13:19:19.519Z,3.10
2018-04-22T13:21:49.229Z,2.97
2018-04-22T13:24:18.962Z,3.33
2018-04-22T13:26:48.697Z,3.07
2018-04-22T13:29:18.446Z,3.57
2018-04-22T13:31:48.169Z,3.07
2018-04-22T13:34:17.898Z,3.30
2018-04-22T13:36:47.640Z,3.07
2018-04-22T13:39:17.415Z,2.83
2018-04-22T13:41:47.139Z,2.77
2018-04-22T13:44:16.870Z,3.10
2018-04-22T13:46:46.655Z,2.57
2018-04-22T13:49:16.370Z,3.27
2018-04-22T13:51:46.082Z,3.10
2018-04-22T13:54:15.870Z,2.60
2018-04-22T13:56:45.551Z,2.70
2018-04-22T13:59:15.274Z,3.17
2018-04-22T14:01:44.996Z,2.90
2018-04-22T14:04:14.730Z,3.00
2018-04-22T14:06:44.474Z,2.80
2018-04-22T14:09:14.240Z,2.93
2018-04-22T14:11:44.178Z,2.90
2018-04-22T14:14:13.855Z,2.80
2018-04-22T14:16:43.594Z,3.00
2018-04-22T14:19:13.321Z,2.80
2018-04-22T14:21:43.042Z,2.80
2018-04-22T14:24:12.778Z,2.50
2018-04-22T14:26:42.558Z,2.50
2018-04-22T14:29:12.298Z,3.00
2018-04-22T14:31:42.156Z,2.67
2018-04-22T14:34:11.846Z,2.97
2018-04-22T14:36:41.582Z,2.43
2018-04-22T14:39:11.309Z,3.03
2018-04-22T14:41:41.069Z,2.87
2018-04-22T14:44:16.554Z,3.00
2018-04-22T14:46:46.294Z,2.70
2018-04-22T14:49:16.011Z,2.90
2018-04-22T14:51:45.746Z,2.77
2018-04-22T14:54:15.482Z,2.50
2018-04-22T14:56:46.070Z,2.77
2018-04-22T14:59:15.820Z,2.77
2018-04-22T15:01:45.652Z,2.50
2018-04-22T15:04:15.378Z,2.50
2018-04-22T15:06:46.323Z,2.70
2018-04-22T15:09:16.128Z,2.97
2018-04-22T15:11:46.665Z,3.03
2018-04-22T15:14:16.405Z,3.43
2018-04-22T15:16:46.130Z,3.53
2018-04-22T15:19:15.877Z,3.70
2018-04-22T15:21:45.602Z,3.93
2018-04-22T15:24:15.331Z,4.13
2018-04-22T15:26:45.074Z,4.00
2018-04-22T15:29:14.794Z,3.90
2018-04-22T15:31:44.558Z,3.57
2018-04-22T15:34:14.283Z,3.77
2018-04-22T15:36:44.026Z,3.23
2018-04-22T15:39:13.754Z,3.33
2018-04-22T15:41:43.487Z,3.27
2018-04-22T15:44:13.218Z,4.97
2018-04-22T15:46:43.662Z,5.77
2018-04-22T15:49:13.403Z,9.03
2018-04-22T15:51:43.184Z,10.57
2018-04-22T15:54:12.862Z,9.23
2018-04-22T15:56:42.637Z,11.40
2018-04-22T15:59:12.378Z,12.67
2018-04-22T16:01:42.104Z,13.70
2018-04-22T16:04:11.839Z,13.73
2018-04-22T16:06:41.646Z,15.87
2018-04-22T16:09:11.402Z,15.33
2018-04-22T16:11:41.167Z,15.50
2018-04-22T16:14:10.911Z,17.37
2018-04-22T16:16:40.650Z,17.73
2018-04-22T16:19:10.385Z,18.83
2018-04-22T16:21:40.121Z,18.17
2018-04-22T16:24:09.878Z,16.70
2018-04-22T16:26:39.594Z,15.50
2018-04-22T16:29:09.334Z,15.47
2018-04-22T16:31:39.078Z,14.87
2018-04-22T16:34:08.812Z,13.97
2018-04-22T16:36:38.552Z,14.20
2018-04-22T16:39:08.280Z,13.67
2018-04-22T16:41:38.046Z,13.07
2018-04-22T16:44:07.790Z,12.53
2018-04-22T16:46:37.542Z,11.90
2018-04-22T16:49:07.280Z,10.73
2018-04-22T16:51:37.919Z,10.80
2018-04-22T16:54:07.757Z,12.03
2018-04-22T16:56:37.482Z,10.40
2018-04-22T16:59:07.226Z,10.73
2018-04-22T17:01:36.962Z,9.90
2018-04-22T17:04:06.691Z,9.47
2018-04-22T17:06:36.426Z,9.57
2018-04-22T17:09:06.158Z,9.97
2018-04-22T17:11:35.894Z,10.43
2018-04-22T17:14:05.670Z,11.27
2018-04-22T17:16:35.401Z,10.33
2018-04-22T17:19:05.124Z,11.43
2018-04-22T17:21:34.944Z,10.63
2018-04-22T17:24:04.708Z,9.57
2018-04-22T17:26:34.414Z,12.53
2018-04-22T17:29:04.154Z,10.97
2018-04-22T17:31:33.886Z,10.33
2018-04-22T17:34:03.617Z,11.40
2018-04-22T17:36:33.354Z,10.57
2018-04-22T17:39:03.141Z,13.10
2018-04-22T17:41:32.885Z,12.03
2018-04-22T17:44:02.606Z,12.47
2018-04-22T17:46:32.357Z,12.07
2018-04-22T17:49:02.096Z,11.80
2018-04-22T17:51:31.825Z,11.23
2018-04-22T17:54:01.554Z,10.63
2018-04-22T17:56:31.293Z,9.53
2018-04-22T17:59:01.038Z,9.23
2018-04-22T18:01:31.453Z,9.80
2018-04-22T18:04:01.169Z,8.90
2018-04-22T18:06:30.895Z,8.50
2018-04-22T18:09:00.622Z,7.20
2018-04-22T18:11:30.361Z,6.43
2018-04-22T18:14:00.110Z,6.27
2018-04-22T18:16:32.061Z,6.13
2018-04-22T18:19:01.941Z,5.63
2018-04-22T18:21:31.639Z,4.97
2018-04-22T18:24:01.883Z,5.13
2018-04-22T18:26:32.395Z,4.70
2018-04-22T18:29:02.122Z,4.30
2018-04-22T18:31:31.847Z,4.10
2018-04-22T18:34:01.581Z,4.17
2018-04-22T18:36:31.299Z,3.60
2018-04-22T18:39:01.070Z,4.37
2018-04-22T18:41:30.826Z,3.67
2018-04-22T18:44:00.555Z,3.90
2018-04-22T18:46:30.295Z,3.60
2018-04-22T18:49:00.035Z,4.13
2018-04-22T18:51:29.766Z,3.37
2018-04-22T18:53:59.555Z,3.50
2018-04-22T18:56:29.329Z,3.70
2018-04-22T18:58:59.024Z,3.43
2018-04-22T19:01:28.742Z,3.20
2018-04-22T19:03:58.505Z,4.37
2018-04-22T19:06:28.211Z,4.07
2018-04-22T19:08:57.938Z,3.87
2018-04-22T19:11:27.663Z,3.60
2018-04-22T19:13:57.411Z,4.60
2018-04-22T19:16:27.133Z,4.10
2018-04-22T19:18:56.857Z,3.97
2018-04-22T19:21:26.586Z,4.03
2018-04-22T19:23:56.310Z,3.73
2018-04-22T19:26:26.802Z,4.17
2018-04-22T19:28:56.533Z,3.60
2018-04-22T19:31:26.233Z,3.80
2018-04-22T19:33:55.974Z,3.53
2018-04-22T19:36:25.706Z,4.07
2018-04-22T19:38:55.446Z,4.17
2018-04-22T19:41:25.166Z,4.27
2018-04-22T19:43:54.974Z,4.80
2018-04-22T19:46:24.732Z,3.93
2018-04-22T19:48:54.456Z,3.70
2018-04-22T19:51:24.235Z,4.00
2018-04-22T19:53:53.922Z,4.17
2018-04-22T19:56:23.682Z,4.63
2018-04-22T19:58:53.415Z,5.23
2018-04-22T20:01:23.151Z,4.90
2018-04-22T20:03:53.058Z,4.50
2018-04-22T20:06:22.783Z,3.90
2018-04-22T20:08:52.618Z,4.00
2018-04-22T20:11:22.315Z,3.60
2018-04-22T20:13:52.038Z,4.13
2018-04-22T20:16:21.794Z,3.50
2018-04-22T20:18:51.587Z,4.70
2018-04-22T20:21:21.314Z,3.83
2018-04-22T20:23:51.689Z,4.37
2018-04-22T20:26:21.670Z,4.10
2018-04-22T20:28:51.422Z,3.40
2018-04-22T20:31:21.147Z,3.43
2018-04-22T20:33:50.893Z,4.20
2018-04-22T20:36:20.648Z,4.23
2018-04-22T20:38:50.365Z,3.77
2018-04-22T20:41:20.138Z,4.13
2018-04-22T20:43:49.872Z,3.90
2018-04-22T20:46:19.602Z,4.23
2018-04-22T20:48:49.348Z,3.97
2018-04-22T20:51:19.079Z,3.80
2018-04-22T20:53:48.813Z,3.57
2018-04-22T20:56:18.530Z,4.20
2018-04-22T20:58:48.247Z,3.37
2018-04-22T21:01:17.974Z,4.47
2018-04-22T21:03:47.718Z,3.70
2018-04-22T21:06:17.434Z,4.73
2018-04-22T21:08:47.210Z,4.20
2018-04-22T21:11:16.878Z,4.30
2018-04-22T21:13:46.602Z,3.77
2018-04-22T21:16:16.386Z,4.13
2018-04-22T21:18:46.108Z,4.00
2018-04-22T21:21:15.826Z,4.00
2018-04-22T21:23:45.544Z,3.90
2018-04-22T21:26:15.272Z,4.17
2018-04-22T21:28:44.991Z,4.03
2018-04-22T21:31:14.732Z,4.00
2018-04-22T21:33:44.480Z,3.63
2018-04-22T21:36:14.193Z,4.23
2018-04-22T21:38:43.918Z,3.43
2018-04-22T21:41:13.638Z,3.50
2018-04-22T21:43:43.358Z,3.70
2018-04-22T21:46:13.078Z,3.87
2018-04-22T21:48:42.799Z,3.10
2018-04-22T21:51:12.540Z,3.33
2018-04-22T21:53:42.280Z,4.43
2018-04-22T21:56:12.022Z,3.63
2018-04-22T21:58:41.757Z,3.80
2018-04-22T22:01:11.506Z,3.93
2018-04-22T22:03:41.234Z,3.10
2018-04-22T22:06:10.957Z,3.87
2018-04-22T22:08:40.689Z,4.13
2018-04-22T22:11:10.416Z,3.70
2018-04-22T22:13:40.126Z,3.27
2018-04-22T22:16:09.845Z,4.57
2018-04-22T22:18:39.569Z,3.60
2018-04-22T22:21:09.298Z,3.20
2018-04-22T22:23:39.026Z,3.67
2018-04-22T22:27:41.998Z,4.03
2018-04-22T22:30:11.730Z,3.97
2018-04-22T22:32:41.481Z,3.80
2018-04-22T22:35:11.210Z,3.30
2018-04-22T22:37:40.942Z,4.20
2018-04-22T22:40:10.658Z,3.87
2018-04-22T22:42:40.381Z,3.53
2018-04-22T22:45:10.133Z,4.27
2018-04-22T22:47:39.861Z,3.63
2018-04-22T22:50:09.591Z,3.27
2018-04-22T22:52:39.343Z,3.63
2018-04-22T22:55:09.090Z,3.77
2018-04-22T22:57:38.799Z,3.73
2018-04-22T23:00:08.587Z,3.30
2018-04-22T23:02:38.119Z,2.57
2018-04-22T23:05:07.854Z,3.93
2018-04-22T23:07:37.578Z,3.53
2018-04-22T23:10:07.301Z,3.20
2018-04-22T23:12:37.039Z,3.00
2018-04-22T23:15:06.761Z,3.60
2018-04-22T23:17:36.490Z,3.43
2018-04-22T23:20:06.223Z,3.10
2018-04-22T23:22:35.941Z,3.63
2018-04-22T23:25:05.714Z,3.60
2018-04-22T23:27:35.397Z,3.23
2018-04-22T23:30:05.158Z,3.33
2018-04-22T23:32:34.877Z,3.30
2018-04-22T23:35:04.602Z,3.13
2018-04-22T23:37:34.526Z,3.00
2018-04-22T23:40:04.240Z,3.07
2018-04-22T23:42:33.966Z,3.23
2018-04-22T23:45:03.682Z,3.63
2018-04-22T23:47:33.406Z,3.37
2018-04-22T23:50:03.231Z,3.00
2018-04-22T23:52:32.942Z,3.47
2018-04-22T23:55:02.678Z,3.23
2018-04-22T23:57:32.389Z,3.33
